Time;durP1;ratioP1;P1;durP2;ratioP2;P2;SDS_P1;SDS_P2;PMS_P1;PMS_P2;Temp;Humidity;BMP_temperature;BMP_pressure;BME280_temperature;BME280_humidity;BME280_pressure;Samples;Min_cycle;Max_cycle;Signal;HPM_P1;HPM_P2
2021/01/09 00:02:27;;;;;;;19.10;11.10;;;6.00;43.50;;;;;;5114796;28;20924;-88
2021/01/09 00:05:00;;;;;;;20.37;12.00;;;6.00;43.50;;;;;;5114862;28;20433;-87
2021/01/09 00:07:40;;;;;;;22.50;11.20;;;5.60;44.10;;;;;;5115516;28;20485;-88
2021/01/09 00:10:26;;;;;;;19.00;11.20;;;5.40;44.80;;;;;;5115105;28;20437;-88
2021/01/09 00:13:07;;;;;;;19.17;11.07;;;5.60;44.60;;;;;;5115098;28;20505;-87
2021/01/09 00:15:40;;;;;;;21.87;12.47;;;5.70;44.30;;;;;;5114981;28;20526;-87
2021/01/09 00:18:12;;;;;;;22.73;12.47;;;5.60;44.50;;;;;;5114849;28;20889;-88
2021/01/09 00:23:31;;;;;;;21.23;11.20;;;5.70;44.20;;;;;;5104418;28;20454;-88
2021/01/09 00:25:58;;;;;;;24.67;12.37;;;5.30;45.40;;;;;;5114566;28;20603;-88
2021/01/09 00:28:33;;;;;;;24.73;13.00;;;5.30;45.60;;;;;;5114637;28;21154;-88
2021/01/09 00:31:16;;;;;;;26.90;13.60;;;5.30;45.10;;;;;;5113857;28;20517;-87
2021/01/09 00:33:58;;;;;;;22.83;12.80;;;5.20;45.60;;;;;;5114847;28;20525;-88
2021/01/09 00:36:25;;;;;;;20.10;12.40;;;4.90;46.90;;;;;;5114372;28;20446;-88
2021/01/09 00:38:55;;;;;;;20.33;12.47;;;5.00;46.30;;;;;;5114087;28;20962;-88
2021/01/09 00:41:39;;;;;;;21.10;12.53;;;5.30;45.40;;;;;;5113609;28;20927;-88
2021/01/09 00:44:27;;;;;;;24.77;13.50;;;5.30;45.20;;;;;;5114604;28;20425;-88
2021/01/09 00:47:19;;;;;;;20.60;12.30;;;5.30;45.20;;;;;;5114151;28;20467;-88
2021/01/09 00:49:52;;;;;;;25.90;14.00;;;5.40;45.00;;;;;;5116382;28;20437;-88
2021/01/09 00:52:26;;;;;;;27.77;14.00;;;5.50;44.40;;;;;;5113822;28;20460;-88
2021/01/09 00:55:03;;;;;;;24.07;13.77;;;5.60;44.40;;;;;;5114230;28;20447;-88
2021/01/09 00:57:33;;;;;;;24.10;12.87;;;5.60;44.50;;;;;;5114300;28;20409;-88
2021/01/09 01:00:00;;;;;;;22.20;12.33;;;5.60;44.50;;;;;;5114210;28;20425;-88
2021/01/09 01:02:29;;;;;;;22.00;12.80;;;5.40;44.80;;;;;;5114078;28;20825;-88
2021/01/09 01:05:05;;;;;;;26.73;14.40;;;5.50;44.60;;;;;;5114259;28;20445;-88
2021/01/09 01:07:34;;;;;;;23.33;12.93;;;5.60;44.70;;;;;;5113896;28;20460;-88
2021/01/09 01:10:07;;;;;;;35.23;15.50;;;5.50;44.70;;;;;;5114004;28;20457;-88
2021/01/09 01:12:36;;;;;;;21.90;12.23;;;5.50;45.00;;;;;;5114646;28;20433;-88
2021/01/09 01:15:04;;;;;;;24.87;13.20;;;5.40;45.20;;;;;;5115197;28;20438;-88
2021/01/09 01:17:45;;;;;;;22.33;12.60;;;5.40;45.20;;;;;;5114012;28;20437;-88
2021/01/09 01:20:26;;;;;;;25.43;12.90;;;5.30;45.50;;;;;;5116311;28;20457;-88
2021/01/09 01:23:07;;;;;;;20.60;11.70;;;5.40;45.60;;;;;;5116716;28;20449;-88
2021/01/09 01:25:51;;;;;;;21.50;12.13;;;5.50;45.00;;;;;;5118696;28;20476;-88
2021/01/09 01:28:23;;;;;;;22.00;12.33;;;5.50;44.80;;;;;;5117909;28;20595;-88
2021/01/09 01:31:03;;;;;;;22.23;13.30;;;5.40;45.20;;;;;;5116769;28;20418;-88
2021/01/09 01:33:33;;;;;;;26.47;13.57;;;5.40;45.30;;;;;;5118506;28;20479;-88
2021/01/09 01:36:07;;;;;;;19.97;12.27;;;5.60;45.00;;;;;;5118330;28;20473;-88
2021/01/09 01:38:44;;;;;;;21.63;13.00;;;5.70;44.20;;;;;;5118190;28;20910;-88
2021/01/09 01:41:28;;;;;;;20.10;13.03;;;5.60;44.60;;;;;;5118456;28;20946;-88
2021/01/09 01:44:04;;;;;;;20.10;12.40;;;5.60;44.80;;;;;;5118813;28;20510;-88
2021/01/09 01:46:33;;;;;;;19.30;10.87;;;5.40;45.10;;;;;;5118200;28;20457;-88
2021/01/09 01:49:17;;;;;;;22.60;12.37;;;5.50;45.00;;;;;;5117979;28;20995;-88
2021/01/09 01:51:53;;;;;;;20.97;11.87;;;5.50;45.10;;;;;;5117509;28;20449;-88
2021/01/09 01:54:21;;;;;;;20.97;11.87;;;5.50;44.90;;;;;;5117600;28;20429;-88
2021/01/09 01:56:55;;;;;;;22.80;12.90;;;5.60;44.50;;;;;;5119089;28;20454;-88
2021/01/09 01:59:32;;;;;;;22.23;12.67;;;5.50;44.70;;;;;;5118206;28;20437;-88
2021/01/09 02:02:10;;;;;;;23.43;12.60;;;5.40;44.90;;;;;;5117592;28;20410;-88
2021/01/09 02:04:50;;;;;;;22.10;13.27;;;5.40;45.10;;;;;;5117523;28;20441;-88
2021/01/09 02:07:24;;;;;;;22.60;11.83;;;5.30;45.30;;;;;;5117105;28;20482;-88
2021/01/09 02:10:08;;;;;;;23.63;13.90;;;5.30;45.50;;;;;;5117974;28;20441;-88
2021/01/09 02:12:41;;;;;;;27.30;13.33;;;5.60;44.60;;;;;;5117411;28;20430;-88
2021/01/09 02:15:17;;;;;;;21.60;12.30;;;5.60;44.10;;;;;;5117508;28;20483;-88
2021/01/09 02:17:50;;;;;;;22.93;12.47;;;5.60;43.90;;;;;;5117606;28;20422;-88
2021/01/09 02:20:26;;;;;;;26.50;13.50;;;5.70;44.20;;;;;;5120478;28;20441;-88
2021/01/09 02:23:04;;;;;;;24.83;13.47;;;5.80;43.90;;;;;;5136937;28;20452;-88
2021/01/09 02:25:34;;;;;;;22.53;12.70;;;5.70;44.30;;;;;;5137493;28;20460;-88
2021/01/09 02:28:07;;;;;;;23.37;12.97;;;5.70;44.30;;;;;;5135972;28;20477;-88
2021/01/09 02:31:01;;;;;;;21.97;12.17;;;5.70;44.50;;;;;;5133262;28;20528;-88
2021/01/09 02:36:25;;;;;;;23.10;12.83;;;5.50;44.30;;;;;;5128173;28;20529;-88
2021/01/09 02:39:05;;;;;;;28.33;13.43;;;5.60;43.90;;;;;;5136184;28;20425;-88
2021/01/09 02:41:41;;;;;;;26.20;13.37;;;5.70;44.10;;;;;;5129524;28;20434;-88
2021/01/09 02:44:20;;;;;;;25.90;13.80;;;5.70;44.30;;;;;;5119168;28;20433;-88
2021/01/09 02:46:56;;;;;;;25.20;13.77;;;5.80;44.20;;;;;;5117033;27;20471;-88
2021/01/09 02:49:25;;;;;;;24.87;13.33;;;5.70;44.20;;;;;;5117752;28;20430;-88
2021/01/09 02:51:58;;;;;;;22.47;13.27;;;5.50;45.00;;;;;;5118214;28;20437;-88
2021/01/09 02:54:31;;;;;;;19.80;12.13;;;5.40;45.10;;;;;;5118813;28;20454;-88
2021/01/09 02:57:00;;;;;;;24.00;13.70;;;5.40;45.20;;;;;;5119759;28;20466;-88
2021/01/09 02:59:32;;;;;;;26.77;13.30;;;5.40;45.40;;;;;;5119420;28;20481;-88
2021/01/09 03:02:04;;;;;;;26.97;12.70;;;5.50;45.10;;;;;;5118091;28;20483;-88
2021/01/09 03:04:35;;;;;;;28.37;15.10;;;5.40;44.90;;;;;;5117189;28;20608;-87
2021/01/09 03:07:10;;;;;;;24.97;12.80;;;5.50;44.60;;;;;;5118783;28;20468;-88
2021/01/09 03:09:44;;;;;;;22.60;12.80;;;5.50;44.50;;;;;;5117284;28;20441;-88
2021/01/09 03:12:12;;;;;;;23.70;12.97;;;5.50;44.90;;;;;;5118248;28;20425;-88
2021/01/09 03:14:52;;;;;;;21.53;12.80;;;5.50;44.70;;;;;;5117010;28;20430;-88
2021/01/09 03:17:24;;;;;;;21.80;13.10;;;5.60;44.40;;;;;;5118028;28;20456;-88
2021/01/09 03:19:54;;;;;;;22.80;12.60;;;5.50;44.50;;;;;;5119088;28;20796;-88
2021/01/09 03:22:21;;;;;;;27.93;13.30;;;5.40;44.60;;;;;;5121554;28;20442;-88
2021/01/09 03:27:40;;;;;;;20.90;11.97;;;5.40;44.80;;;;;;5089059;28;20505;-88
2021/01/09 03:30:11;;;;;;;22.93;13.27;;;5.40;44.80;;;;;;5139962;28;20443;-88
2021/01/09 03:32:43;;;;;;;17.17;10.57;;;5.50;44.70;;;;;;5136660;28;20428;-88
2021/01/09 03:35:20;;;;;;;20.37;11.73;;;5.50;44.50;;;;;;5134398;28;20419;-88
2021/01/09 03:37:54;;;;;;;22.83;12.63;;;5.50;44.60;;;;;;5132208;28;20448;-88
2021/01/09 03:40:29;;;;;;;21.43;12.07;;;5.60;44.00;;;;;;5134139;28;20439;-88
2021/01/09 03:42:59;;;;;;;20.27;12.27;;;5.50;44.20;;;;;;5139476;28;20427;-87
2021/01/09 03:45:31;;;;;;;20.80;13.03;;;5.70;44.10;;;;;;5138736;28;20479;-87
2021/01/09 03:48:11;;;;;;;28.80;13.40;;;5.70;44.00;;;;;;5132624;28;20526;-88
2021/01/09 03:50:54;;;;;;;21.17;12.97;;;5.40;44.20;;;;;;5136519;28;20423;-88
2021/01/09 03:53:30;;;;;;;19.90;12.57;;;5.50;43.70;;;;;;5132752;28;20478;-88
2021/01/09 03:56:10;;;;;;;25.70;12.33;;;5.70;43.40;;;;;;5126559;28;20457;-88
2021/01/09 03:58:42;;;;;;;21.87;11.40;;;5.70;43.70;;;;;;5137636;28;20442;-88
2021/01/09 04:01:17;;;;;;;23.13;13.00;;;5.50;44.10;;;;;;5134925;28;20518;-88
2021/01/09 04:03:52;;;;;;;19.10;11.73;;;5.40;45.60;;;;;;5127234;28;20429;-88
2021/01/09 04:06:21;;;;;;;20.40;11.37;;;5.40;44.80;;;;;;5128782;28;20457;-87
2021/01/09 04:08:52;;;;;;;24.03;13.83;;;5.40;45.00;;;;;;5129726;28;20500;-87
2021/01/09 04:11:27;;;;;;;21.70;12.50;;;5.40;45.00;;;;;;5129809;28;20446;-87
2021/01/09 04:14:02;;;;;;;27.27;14.30;;;5.40;45.00;;;;;;5137480;28;20448;-88
2021/01/09 04:16:38;;;;;;;20.97;13.47;;;5.40;45.00;;;;;;5137563;28;20558;-88
2021/01/09 04:19:11;;;;;;;21.83;13.03;;;5.50;44.70;;;;;;5120907;28;20422;-88
2021/01/09 04:21:51;;;;;;;25.60;13.13;;;5.50;44.70;;;;;;5115084;28;20430;-88
2021/01/09 04:24:35;;;;;;;24.60;13.43;;;5.50;45.00;;;;;;5115324;28;20450;-88
2021/01/09 04:27:20;;;;;;;25.70;13.77;;;5.30;45.40;;;;;;5115240;28;20454;-88
2021/01/09 04:30:07;;;;;;;22.53;12.17;;;5.40;45.20;;;;;;5115086;28;20509;-88
2021/01/09 04:32:52;;;;;;;19.77;11.90;;;5.50;45.00;;;;;;5107419;28;20504;-88
2021/01/09 04:35:31;;;;;;;25.03;13.67;;;5.40;45.00;;;;;;5114190;28;20454;-88
2021/01/09 04:38:08;;;;;;;21.40;13.07;;;5.50;45.20;;;;;;5114854;28;20460;-88
2021/01/09 04:40:49;;;;;;;23.13;12.97;;;5.40;45.10;;;;;;5113875;28;20432;-88
2021/01/09 04:43:23;;;;;;;23.63;13.23;;;5.60;45.20;;;;;;5114454;28;20402;-88
2021/01/09 04:46:06;;;;;;;23.50;13.50;;;5.60;45.30;;;;;;5116229;28;20537;-88
2021/01/09 04:48:51;;;;;;;21.53;13.07;;;5.50;45.30;;;;;;5113859;28;20467;-88
2021/01/09 04:51:24;;;;;;;24.50;14.20;;;5.40;45.70;;;;;;5113777;28;20441;-88
2021/01/09 04:54:01;;;;;;;26.27;14.10;;;5.50;45.40;;;;;;5113456;28;20461;-88
2021/01/09 04:56:36;;;;;;;22.20;13.43;;;5.30;45.50;;;;;;5113638;28;20472;-88
2021/01/09 04:59:20;;;;;;;21.80;13.70;;;5.30;46.10;;;;;;5114555;28;20829;-88
2021/01/09 05:02:02;;;;;;;23.90;15.20;;;5.40;45.80;;;;;;5104454;28;20442;-88
2021/01/09 05:04:31;;;;;;;26.60;14.97;;;5.50;45.60;;;;;;5114274;28;20492;-88
2021/01/09 05:07:00;;;;;;;24.80;14.33;;;5.20;46.10;;;;;;5114203;28;20494;-88
2021/01/09 05:09:31;;;;;;;23.60;13.90;;;5.40;45.60;;;;;;5114002;28;20818;-88
2021/01/09 05:12:08;;;;;;;22.87;13.80;;;5.50;45.60;;;;;;5113636;28;20744;-88
2021/01/09 05:15:06;;;;;;;26.63;13.70;;;5.60;45.50;;;;;;5113067;28;20434;-88
2021/01/09 05:17:39;;;;;;;23.30;13.73;;;5.60;45.20;;;;;;5113832;28;20842;-88
2021/01/09 05:20:33;;;;;;;27.50;15.27;;;5.60;45.40;;;;;;5113865;28;20516;-88
2021/01/09 05:23:05;;;;;;;21.83;14.10;;;5.50;45.60;;;;;;5114510;28;20876;-88
2021/01/09 05:25:52;;;;;;;23.87;13.97;;;5.40;45.50;;;;;;5113651;28;20846;-88
2021/01/09 05:28:36;;;;;;;24.80;13.70;;;5.00;45.60;;;;;;5114107;28;20520;-88
2021/01/09 05:31:20;;;;;;;25.60;14.50;;;5.50;45.50;;;;;;5113406;28;20469;-88
2021/01/09 05:33:50;;;;;;;23.30;13.70;;;5.30;46.00;;;;;;5113802;28;20457;-88
2021/01/09 05:36:21;;;;;;;26.20;13.60;;;5.40;46.60;;;;;;5113616;28;20511;-88
2021/01/09 05:39:01;;;;;;;20.03;12.43;;;5.40;45.90;;;;;;5113655;28;20434;-88
2021/01/09 05:41:34;;;;;;;26.63;14.83;;;5.40;45.70;;;;;;5113321;28;20540;-88
2021/01/09 05:44:06;;;;;;;24.13;13.60;;;5.30;46.00;;;;;;5113482;28;20433;-88
2021/01/09 05:46:49;;;;;;;29.57;15.70;;;5.60;45.60;;;;;;5113484;28;20449;-88
2021/01/09 05:49:47;;;;;;;23.90;14.80;;;5.50;45.40;;;;;;5112977;28;20517;-88
2021/01/09 05:52:29;;;;;;;24.87;13.13;;;5.40;45.70;;;;;;5114143;28;20456;-88
2021/01/09 05:55:24;;;;;;;31.30;15.80;;;5.40;45.60;;;;;;5113690;28;20960;-88
2021/01/09 05:58:01;;;;;;;28.17;14.93;;;5.40;45.70;;;;;;5114352;28;20426;-88
2021/01/09 06:04:21;;;;;;;36.30;15.00;;;5.10;46.40;;;;;;5099126;28;20482;-88
2021/01/09 06:07:01;;;;;;;24.00;14.13;;;5.00;46.30;;;;;;5113172;28;20833;-88
2021/01/09 06:09:35;;;;;;;27.20;15.13;;;5.20;46.50;;;;;;5114008;28;21023;-88
2021/01/09 06:12:15;;;;;;;22.53;13.50;;;5.30;46.50;;;;;;5117825;28;20429;-88
2021/01/09 06:14:46;;;;;;;25.27;14.23;;;5.30;46.40;;;;;;5119080;28;20441;-88
2021/01/09 06:17:22;;;;;;;26.87;14.43;;;5.30;46.40;;;;;;5118072;28;20502;-88
2021/01/09 06:19:53;;;;;;;25.03;15.30;;;5.20;46.50;;;;;;5118809;28;20417;-88
2021/01/09 06:22:27;;;;;;;24.30;15.23;;;5.20;46.50;;;;;;5118505;28;20431;-88
2021/01/09 06:25:01;;;;;;;32.97;16.40;;;5.30;45.90;;;;;;5117501;28;20899;-88
2021/01/09 06:27:59;;;;;;;22.27;13.83;;;5.40;45.60;;;;;;5121256;28;20445;-89
2021/01/09 06:30:40;;;;;;;25.70;15.00;;;5.50;45.40;;;;;;5118621;28;20905;-88
2021/01/09 06:33:22;;;;;;;28.70;15.20;;;5.40;45.50;;;;;;5118830;28;20927;-88
2021/01/09 06:36:01;;;;;;;24.17;13.70;;;5.40;46.10;;;;;;5118600;28;20490;-88
2021/01/09 06:38:42;;;;;;;19.87;13.00;;;5.90;51.10;;;;;;5124313;28;20445;-87
2021/01/09 06:41:13;;;;;;;26.90;16.17;;;7.00;51.00;;;;;;5120888;28;20438;-87
2021/01/09 06:43:55;;;;;;;28.23;15.73;;;7.60;47.20;;;;;;5117557;28;20453;-86
2021/01/09 06:47:03;;;;;;;23.60;12.57;;;6.90;44.30;;;;;;5118165;28;20527;-88
2021/01/09 06:49:47;;;;;;;23.73;13.43;;;7.00;48.00;;;;;;5116666;28;20557;-87
2021/01/09 06:56:03;;;;;;;24.33;13.80;;;7.50;48.40;;;;;;5117148;28;20429;-88
2021/01/09 06:58:32;;;;;;;23.90;13.93;;;7.70;44.70;;;;;;5074612;28;20488;-88
2021/01/09 07:01:24;;;;;;;18.40;11.60;;;7.60;45.10;;;;;;5075751;28;20447;-88
2021/01/09 07:03:57;;;;;;;22.23;14.20;;;7.40;46.20;;;;;;5075323;28;20478;-88
2021/01/09 07:07:13;;;;;;;20.07;12.77;;;7.00;43.10;;;;;;5075202;28;20467;-87
2021/01/09 07:09:46;;;;;;;24.10;13.10;;;6.70;43.70;;;;;;4994762;28;20533;-87
2021/01/09 07:12:22;;;;;;;23.87;12.83;;;6.30;44.50;;;;;;4994733;28;20540;-87
2021/01/09 07:14:55;;;;;;;23.27;13.60;;;6.10;44.50;;;;;;4999507;28;20457;-87
2021/01/09 07:17:40;;;;;;;25.00;12.60;;;5.80;45.70;;;;;;5015102;28;20473;-87
2021/01/09 07:20:15;;;;;;;50.03;29.20;;;6.00;45.90;;;;;;5015087;28;20452;-87
2021/01/09 07:23:17;;;;;;;34.70;21.23;;;5.80;45.90;;;;;;5014297;28;20449;-87
2021/01/09 07:26:10;;;;;;;26.57;15.27;;;5.80;46.40;;;;;;5011475;28;20463;-88
2021/01/09 07:28:52;;;;;;;24.43;14.50;;;5.50;46.10;;;;;;4996258;28;20887;-87
2021/01/09 07:31:41;;;;;;;28.07;16.37;;;5.10;46.60;;;;;;4994440;28;20533;-88
2021/01/09 07:34:22;;;;;;;29.27;15.93;;;5.20;47.30;;;;;;4994918;28;20451;-88
2021/01/09 07:37:04;;;;;;;22.83;12.73;;;5.30;46.50;;;;;;5034462;28;20449;-89
2021/01/09 07:39:53;;;;;;;25.37;15.50;;;5.40;50.50;;;;;;5053150;28;20438;-87
2021/01/09 07:42:39;;;;;;;24.67;16.33;;;6.00;47.70;;;;;;5116920;28;20821;-88
2021/01/09 07:45:08;;;;;;;23.00;12.20;;;6.40;46.60;;;;;;5116976;28;20432;-89
2021/01/09 07:47:45;;;;;;;25.03;14.70;;;6.90;48.80;;;;;;5117419;28;20447;-88
2021/01/09 07:50:22;;;;;;;30.57;16.77;;;7.00;45.60;;;;;;5119114;28;20508;-87
2021/01/09 07:53:05;;;;;;;26.53;16.43;;;7.40;47.10;;;;;;5122106;28;20474;-88
2021/01/09 07:55:57;;;;;;;23.73;13.03;;;7.70;47.50;;;;;;5118841;28;20454;-87
2021/01/09 07:58:49;;;;;;;25.23;13.00;;;7.60;43.60;;;;;;5120954;28;20444;-88
2021/01/09 08:01:19;;;;;;;24.47;15.10;;;7.70;45.30;;;;;;5117420;28;20807;-88
2021/01/09 08:03:50;;;;;;;20.37;13.73;;;7.40;43.30;;;;;;5117399;28;20844;-87
2021/01/09 08:06:22;;;;;;;28.90;16.87;;;7.00;43.90;;;;;;5117897;28;20462;-87
2021/01/09 08:08:51;;;;;;;18.80;11.70;;;6.20;44.30;;;;;;5116935;28;20458;-87
2021/01/09 08:11:24;;;;;;;25.67;16.40;;;5.70;49.70;;;;;;5118272;28;20441;-87
2021/01/09 08:16:49;;;;;;;29.40;15.50;;;5.90;46.20;;;;;;5115712;28;20488;-88
2021/01/09 08:19:24;;;;;;;29.23;17.10;;;5.40;47.60;;;;;;5119900;28;20504;-87
2021/01/09 08:21:53;;;;;;;26.73;15.27;;;5.70;46.90;;;;;;5125487;28;20439;-87
2021/01/09 08:24:28;;;;;;;27.57;14.60;;;6.00;47.20;;;;;;5128354;28;20516;-88
2021/01/09 08:27:01;;;;;;;23.33;14.53;;;5.70;45.60;;;;;;5127870;28;20460;-88
2021/01/09 08:29:31;;;;;;;26.53;15.57;;;4.80;47.60;;;;;;5128170;28;20459;-88
2021/01/09 08:31:59;;;;;;;37.30;16.67;;;4.10;48.50;;;;;;5131023;28;20541;-88
2021/01/09 08:34:32;;;;;;;24.80;14.60;;;4.30;49.60;;;;;;5132557;28;20459;-88
2021/01/09 08:37:04;;;;;;;30.40;15.20;;;4.60;48.20;;;;;;5132615;28;20458;-88
2021/01/09 08:39:36;;;;;;;31.70;15.00;;;4.60;48.70;;;;;;5127892;28;20466;-88
2021/01/09 08:42:14;;;;;;;32.37;17.70;;;4.10;49.20;;;;;;5122710;28;20496;-88
2021/01/09 08:44:50;;;;;;;27.97;17.13;;;3.70;50.50;;;;;;5126689;28;20450;-88
2021/01/09 08:47:21;;;;;;;31.27;20.83;;;4.00;50.90;;;;;;5134662;28;20430;-88
2021/01/09 08:49:57;;;;;;;29.50;16.90;;;4.80;49.90;;;;;;5137299;28;20475;-88
2021/01/09 08:52:32;;;;;;;25.27;15.70;;;5.00;47.90;;;;;;5137925;28;20439;-88
2021/01/09 08:55:04;;;;;;;31.60;17.07;;;4.60;48.70;;;;;;5121027;28;20455;-88
2021/01/09 08:57:35;;;;;;;32.37;17.27;;;4.70;49.10;;;;;;5129507;28;20517;-88
2021/01/09 09:00:06;;;;;;;33.17;17.90;;;4.50;49.40;;;;;;5137662;28;20452;-88
2021/01/09 09:02:35;;;;;;;32.73;18.93;;;5.00;48.50;;;;;;5137989;28;20457;-88
2021/01/09 09:05:11;;;;;;;24.90;15.37;;;5.10;47.80;;;;;;5137797;28;20450;-88
2021/01/09 09:07:44;;;;;;;28.30;16.80;;;4.70;48.90;;;;;;5120613;28;20445;-89
2021/01/09 09:10:14;;;;;;;33.63;17.70;;;4.80;49.00;;;;;;5119101;28;20501;-89
2021/01/09 09:12:50;;;;;;;26.50;17.03;;;5.30;48.00;;;;;;5118303;28;20438;-88
2021/01/09 09:15:29;;;;;;;25.20;15.40;;;5.40;47.30;;;;;;5117409;28;20425;-88
2021/01/09 09:18:00;;;;;;;29.97;17.63;;;6.00;47.20;;;;;;5115947;28;20533;-88
2021/01/09 09:20:32;;;;;;;36.07;20.07;;;6.40;46.10;;;;;;5116581;28;20459;-89
2021/01/09 09:23:18;;;;;;;27.33;15.63;;;6.00;45.10;;;;;;5115996;28;20424;-89
2021/01/09 09:26:19;;;;;;;31.13;18.63;;;5.60;46.80;;;;;;5116238;28;20451;-89
2021/01/09 09:28:48;;;;;;;29.63;17.23;;;5.50;46.70;;;;;;5116355;28;20464;-89
2021/01/09 09:31:24;;;;;;;27.43;17.23;;;5.60;46.80;;;;;;5117422;28;20447;-89
2021/01/09 09:34:09;;;;;;;27.50;16.53;;;5.80;47.10;;;;;;5117363;28;20444;-89
2021/01/09 09:36:38;;;;;;;32.60;19.13;;;5.90;46.20;;;;;;5117511;28;20476;-89
2021/01/09 09:39:19;;;;;;;27.50;16.50;;;6.10;46.30;;;;;;5116928;28;20451;-89
2021/01/09 09:41:57;;;;;;;31.13;17.53;;;6.60;45.70;;;;;;5115978;28;20498;-89
2021/01/09 09:44:37;;;;;;;30.47;17.27;;;6.60;44.80;;;;;;5116426;28;20430;-89
2021/01/09 09:47:13;;;;;;;29.57;17.27;;;6.90;45.50;;;;;;5120642;28;20829;-89
2021/01/09 09:49:52;;;;;;;32.90;20.17;;;7.20;44.20;;;;;;5121964;28;20468;-89
2021/01/09 09:52:22;;;;;;;31.37;18.07;;;7.00;44.10;;;;;;5120085;28;20510;-89
2021/01/09 09:55:01;;;;;;;30.30;17.10;;;6.90;44.10;;;;;;5118265;28;20445;-89
2021/01/09 09:57:35;;;;;;;30.03;17.10;;;7.00;44.90;;;;;;5118419;28;20411;-89
2021/01/09 10:00:15;;;;;;;30.07;17.50;;;7.30;46.50;;;;;;5119966;28;20432;-89
2021/01/09 10:02:54;;;;;;;29.70;18.23;;;7.40;44.60;;;;;;5118968;28;20933;-89
2021/01/09 10:05:30;;;;;;;21.70;12.80;;;7.40;44.40;;;;;;5120166;28;20493;-89
2021/01/09 10:08:13;;;;;;;25.87;17.17;;;7.70;46.90;;;;;;5121051;28;20435;-89
2021/01/09 10:10:46;;;;;;;29.70;18.60;;;8.20;45.50;;;;;;5118913;28;20506;-89
2021/01/09 10:13:34;;;;;;;30.70;18.83;;;8.30;42.60;;;;;;5118953;28;20590;-89
2021/01/09 10:16:02;;;;;;;38.83;21.80;;;7.90;42.70;;;;;;5118830;28;20469;-89
2021/01/09 10:18:35;;;;;;;28.03;18.10;;;7.80;42.80;;;;;;5119393;28;20482;-89
2021/01/09 10:21:03;;;;;;;30.93;19.07;;;7.10;43.50;;;;;;5119076;28;20430;-89
2021/01/09 10:23:30;;;;;;;22.53;15.50;;;7.20;44.60;;;;;;5119655;28;20449;-89
2021/01/09 10:26:02;;;;;;;30.70;18.27;;;8.10;46.40;;;;;;5120051;28;20461;-90
2021/01/09 10:28:29;;;;;;;32.47;19.50;;;8.70;43.80;;;;;;5119772;28;20477;-89
2021/01/09 10:30:56;;;;;;;31.17;19.20;;;8.90;41.80;;;;;;5118528;28;20461;-90
2021/01/09 10:33:32;;;;;;;38.23;21.13;;;8.60;42.00;;;;;;5118900;28;20504;-90
2021/01/09 10:36:03;;;;;;;30.57;17.80;;;8.30;42.10;;;;;;5118729;28;20469;-90
2021/01/09 10:38:31;;;;;;;32.70;17.77;;;7.00;43.30;;;;;;5119391;28;20429;-90
2021/01/09 10:41:04;;;;;;;27.57;17.07;;;6.50;45.00;;;;;;5120724;28;20454;-90
2021/01/09 10:43:32;;;;;;;33.77;19.47;;;7.10;47.10;;;;;;5122029;28;20438;-90
2021/01/09 10:45:59;;;;;;;30.47;19.17;;;7.00;43.40;;;;;;5124136;28;20461;-90
2021/01/09 10:48:26;;;;;;;33.43;19.73;;;6.60;44.60;;;;;;5121100;28;20472;-90
2021/01/09 10:50:54;;;;;;;29.70;17.27;;;6.50;45.50;;;;;;5120043;28;20438;-91
2021/01/09 10:53:25;;;;;;;51.43;23.47;;;6.90;46.50;;;;;;5119428;28;20457;-91
2021/01/09 10:55:57;;;;;;;38.73;21.97;;;6.80;45.00;;;;;;5119160;28;20473;-90
2021/01/09 10:58:25;;;;;;;41.40;20.77;;;6.60;44.80;;;;;;5119734;28;20895;-90
2021/01/09 11:01:00;;;;;;;32.00;18.20;;;6.20;45.00;;;;;;5122161;28;20448;-90
2021/01/09 11:03:33;;;;;;;37.37;21.67;;;6.20;44.80;;;;;;5120236;28;20438;-90
2021/01/09 11:06:05;;;;;;;55.37;27.90;;;5.40;46.60;;;;;;5118533;28;20491;-90
2021/01/09 11:08:38;;;;;;;59.50;29.90;;;5.30;46.50;;;;;;5119697;28;20469;-89
2021/01/09 11:11:05;;;;;;;61.43;29.00;;;5.30;47.30;;;;;;5119418;28;20406;-91
2021/01/09 11:13:45;;;;;;;91.80;36.10;;;5.20;46.50;;;;;;5119420;28;20530;-91
2021/01/09 11:16:19;;;;;;;42.33;21.50;;;5.00;48.00;;;;;;5118996;28;20624;-91
2021/01/09 11:18:46;;;;;;;31.97;17.50;;;5.10;46.40;;;;;;5119987;28;20486;-91
2021/01/09 11:21:17;;;;;;;50.43;27.70;;;4.80;46.10;;;;;;5120263;28;20476;-90
2021/01/09 11:23:45;;;;;;;49.60;26.40;;;4.70;48.10;;;;;;5119967;28;20909;-91
2021/01/09 11:26:13;;;;;;;32.50;18.10;;;5.00;46.40;;;;;;5118825;28;20479;-91
2021/01/09 11:28:43;;;;;;;36.80;19.90;;;5.40;46.60;;;;;;5119750;28;20520;-91
2021/01/09 11:31:16;;;;;;;36.47;20.17;;;5.40;46.60;;;;;;5119412;28;20440;-90
2021/01/09 11:33:46;;;;;;;24.57;14.47;;;5.40;46.60;;;;;;5119228;28;20461;-91
2021/01/09 11:36:24;;;;;;;27.33;14.87;;;5.00;45.20;;;;;;5119391;28;20458;-91
2021/01/09 11:38:52;;;;;;;37.83;17.43;;;4.60;46.00;;;;;;5118605;28;20445;-90
2021/01/09 11:41:27;;;;;;;45.50;19.00;;;4.80;46.10;;;;;;5119826;28;20430;-90
2021/01/09 11:43:55;;;;;;;35.20;20.20;;;5.30;45.30;;;;;;5120578;28;20425;-90
2021/01/09 11:46:27;;;;;;;55.00;24.83;;;5.30;45.50;;;;;;5120816;28;20466;-90
2021/01/09 11:48:54;;;;;;;32.93;18.50;;;5.30;45.00;;;;;;5117982;28;20939;-90
2021/01/09 11:51:25;;;;;;;28.83;17.00;;;5.60;44.60;;;;;;5117994;28;20429;-90
2021/01/09 11:53:54;;;;;;;27.97;17.20;;;5.70;44.50;;;;;;5118551;28;20947;-90
2021/01/09 11:56:24;;;;;;;38.27;21.37;;;5.60;45.80;;;;;;5118658;28;20450;-89
2021/01/09 11:59:01;;;;;;;26.23;16.73;;;6.10;45.50;;;;;;5118421;28;20451;-90
2021/01/09 12:01:36;;;;;;;30.17;18.20;;;6.60;43.00;;;;;;5118722;28;20445;-90
2021/01/09 12:04:06;;;;;;;47.60;25.10;;;6.00;43.00;;;;;;5117882;28;20461;-90
2021/01/09 12:06:39;;;;;;;73.20;37.80;;;5.00;45.00;;;;;;5117490;28;20466;-90
2021/01/09 12:09:11;;;;;;;68.67;36.03;;;4.60;46.00;;;;;;5118198;28;20509;-89
2021/01/09 12:11:41;;;;;;;44.07;25.13;;;4.60;46.00;;;;;;5133010;28;20420;-88
2021/01/09 12:14:09;;;;;;;39.73;20.30;;;4.60;46.00;;;;;;5138937;28;20488;-88
2021/01/09 12:16:37;;;;;;;30.47;17.00;;;4.50;46.00;;;;;;5138633;28;20477;-89
2021/01/09 12:19:07;;;;;;;34.07;18.50;;;4.70;46.00;;;;;;5138694;28;20424;-90
2021/01/09 12:21:38;;;;;;;37.40;19.53;;;4.50;45.90;;;;;;5138370;28;20445;-89
2021/01/09 12:24:08;;;;;;;34.57;18.93;;;4.40;46.70;;;;;;5138596;28;20433;-88
2021/01/09 12:26:35;;;;;;;30.07;17.47;;;4.20;47.10;;;;;;5127209;28;20520;-90
2021/01/09 12:29:04;;;;;;;29.17;17.17;;;4.30;47.40;;;;;;5122704;28;20497;-89
2021/01/09 12:31:33;;;;;;;28.87;16.40;;;4.80;46.10;;;;;;5125772;28;20437;-89
2021/01/09 12:34:05;;;;;;;28.97;17.00;;;5.70;47.60;;;;;;5137082;28;20445;-89
2021/01/09 12:36:33;;;;;;;30.03;15.80;;;6.50;43.40;;;;;;5138030;28;20536;-89
2021/01/09 12:39:09;;;;;;;28.80;15.70;;;6.60;43.50;;;;;;5137945;28;20431;-90
2021/01/09 12:41:42;;;;;;;37.70;19.20;;;7.30;44.20;;;;;;5126992;28;20458;-89
2021/01/09 12:44:10;;;;;;;31.53;18.30;;;6.90;42.00;;;;;;5121780;28;20448;-90
2021/01/09 12:46:42;;;;;;;26.17;15.40;;;6.90;41.10;;;;;;5117858;28;21019;-90
2021/01/09 12:49:13;;;;;;;22.53;14.07;;;5.60;42.70;;;;;;5117324;28;20521;-91
2021/01/09 12:51:44;;;;;;;25.77;14.63;;;4.50;45.90;;;;;;5120409;28;20463;-91
2021/01/09 12:54:14;;;;;;;27.63;15.10;;;4.40;46.30;;;;;;5118471;28;20473;-91
2021/01/09 12:56:45;;;;;;;34.10;14.37;;;4.70;46.00;;;;;;5119292;28;20441;-90
2021/01/09 12:59:14;;;;;;;25.33;14.03;;;4.00;45.50;;;;;;5117363;28;20437;-90
2021/01/09 13:01:43;;;;;;;24.33;13.53;;;4.10;45.60;;;;;;5121673;28;20517;-90
2021/01/09 13:04:11;;;;;;;24.03;12.63;;;4.50;44.90;;;;;;5123052;28;20541;-91
2021/01/09 13:06:41;;;;;;;19.87;12.60;;;4.80;43.50;;;;;;5121881;28;20452;-90
2021/01/09 13:09:13;;;;;;;22.80;12.40;;;4.30;44.60;;;;;;5121305;28;20479;-91
2021/01/09 13:11:42;;;;;;;19.37;11.70;;;4.20;45.10;;;;;;5119452;28;20432;-90
2021/01/09 13:14:10;;;;;;;23.97;13.30;;;4.00;45.40;;;;;;5117791;28;20536;-90
2021/01/09 13:16:44;;;;;;;22.40;12.20;;;4.70;44.50;;;;;;5116364;28;20838;-90
2021/01/09 13:19:16;;;;;;;22.33;12.70;;;5.10;42.40;;;;;;5118220;28;20740;-90
2021/01/09 13:21:44;;;;;;;23.87;13.13;;;5.10;43.10;;;;;;5119799;28;20480;-89
2021/01/09 13:24:14;;;;;;;20.37;13.03;;;5.80;44.30;;;;;;5120401;28;20450;-90
2021/01/09 13:26:43;;;;;;;18.20;10.40;;;6.30;40.30;;;;;;5120262;28;20555;-90
2021/01/09 13:29:16;;;;;;;20.17;10.97;;;6.30;41.00;;;;;;5120869;28;20469;-90
2021/01/09 13:31:48;;;;;;;18.40;11.30;;;6.30;39.50;;;;;;5120065;28;20453;-90
2021/01/09 13:34:18;;;;;;;24.67;13.53;;;5.90;40.90;;;;;;5119960;28;20455;-89
2021/01/09 13:36:46;;;;;;;27.07;15.67;;;5.90;40.80;;;;;;5119956;28;20517;-89